Time;durP1;ratioP1;P1;durP2;ratioP2;P2;SDS_P1;SDS_P2;PMS_P1;PMS_P2;Temp;Humidity;BMP_temperature;BMP_pressure;BME280_temperature;BME280_humidity;BME280_pressure;Samples;Min_cycle;Max_cycle;Signal;HPM_P1;HPM_P2
2022/09/09 00:01:38;;;;;;;2.35;1.63;;;15.20;54.00;;;;;;4897863;29;20201;-34
2022/09/09 00:04:16;;;;;;;1.75;1.52;;;15.20;53.90;;;;;;4898620;29;20216;-35
2022/09/09 00:06:53;;;;;;;2.38;1.60;;;15.30;54.00;;;;;;4897988;29;20240;-39
2022/09/09 00:09:28;;;;;;;2.40;1.58;;;15.30;53.90;;;;;;4897269;29;20232;-34
2022/09/09 00:12:05;;;;;;;3.30;1.75;;;15.30;53.90;;;;;;4897943;29;20557;-34
2022/09/09 00:14:46;;;;;;;2.47;1.55;;;15.40;54.00;;;;;;4896989;29;20311;-39
2022/09/09 00:17:22;;;;;;;2.95;1.90;;;15.40;54.00;;;;;;4897454;29;20276;-34
2022/09/09 00:20:00;;;;;;;6.30;1.83;;;15.40;54.00;;;;;;4897261;29;20600;-36
2022/09/09 00:22:33;;;;;;;3.13;2.00;;;15.50;54.10;;;;;;4896993;29;20344;-34
2022/09/09 00:25:12;;;;;;;2.55;1.90;;;15.50;54.10;;;;;;4896593;29;20273;-35
2022/09/09 00:27:48;;;;;;;3.13;1.55;;;15.50;54.10;;;;;;4896355;29;20240;-34
2022/09/09 00:30:22;;;;;;;1.98;1.60;;;15.60;54.10;;;;;;4896175;29;20710;-35
2022/09/09 00:32:58;;;;;;;3.08;1.98;;;15.60;54.10;;;;;;4895597;29;20617;-36
2022/09/09 00:35:31;;;;;;;3.22;1.90;;;15.60;54.10;;;;;;4932034;23;20224;-45
2022/09/09 00:38:12;;;;;;;2.38;1.65;;;15.70;54.10;;;;;;4913500;29;20215;-38
2022/09/09 00:40:51;;;;;;;3.05;1.50;;;15.70;54.10;;;;;;4914431;29;20207;-43
2022/09/09 00:43:32;;;;;;;2.35;1.52;;;15.70;54.00;;;;;;4914096;29;20865;-46
2022/09/09 00:46:35;;;;;;;2.08;1.50;;;15.70;54.00;;;;;;4906895;29;20225;-43
2022/09/09 00:49:14;;;;;;;1.63;1.35;;;15.80;54.00;;;;;;4876122;29;20285;-43
2022/09/09 00:51:57;;;;;;;2.17;1.50;;;15.90;54.50;;;;;;4876334;29;20729;-37
2022/09/09 00:54:39;;;;;;;1.83;1.33;;;15.90;53.90;;;;;;4879670;29;20213;-42
2022/09/09 00:57:24;;;;;;;2.38;1.80;;;15.90;53.80;;;;;;4895386;29;20622;-40
2022/09/09 01:00:00;;;;;;;3.88;2.00;;;15.90;53.80;;;;;;4895573;29;20256;-39
2022/09/09 01:02:39;;;;;;;3.20;1.60;;;16.00;53.80;;;;;;4895549;29;20264;-37
2022/09/09 01:05:15;;;;;;;3.00;1.75;;;16.00;53.80;;;;;;4895716;29;20572;-44
2022/09/09 01:07:50;;;;;;;2.88;1.50;;;16.00;53.70;;;;;;4894791;29;20264;-39
2022/09/09 01:10:30;;;;;;;2.30;1.67;;;16.00;53.70;;;;;;4876064;29;20208;-41
2022/09/09 01:13:05;;;;;;;2.75;1.50;;;16.10;53.70;;;;;;4876752;29;20205;-42
2022/09/09 01:15:37;;;;;;;3.05;1.75;;;16.10;53.70;;;;;;4876407;29;20221;-42
2022/09/09 01:18:12;;;;;;;2.30;1.52;;;16.10;53.60;;;;;;4888463;29;20197;-45
2022/09/09 01:20:51;;;;;;;2.80;1.70;;;16.10;53.60;;;;;;4895515;29;20197;-39
2022/09/09 01:23:46;;;;;;;2.22;1.60;;;16.20;53.70;;;;;;4895738;29;20550;-43
2022/09/09 01:26:27;;;;;;;2.40;1.50;;;16.20;53.70;;;;;;4894953;29;20531;-39
2022/09/09 01:28:58;;;;;;;2.33;1.60;;;16.20;53.70;;;;;;4895188;29;20240;-37
2022/09/09 01:31:33;;;;;;;2.72;1.58;;;16.20;53.70;;;;;;4895204;29;20208;-39
2022/09/09 01:34:03;;;;;;;4.05;1.80;;;16.20;53.70;;;;;;4910906;29;20566;-38
2022/09/09 02:36:13;;;;;;;3.58;1.80;;;16.60;53.60;;;;;;5577545;23;20236;-35
2022/09/09 02:38:50;;;;;;;1.95;1.52;;;16.60;53.60;;;;;;4905614;29;20232;-35
2022/09/09 02:41:22;;;;;;;2.65;2.00;;;16.60;53.70;;;;;;4894344;29;20204;-37
2022/09/09 02:43:53;;;;;;;3.05;1.80;;;16.60;53.60;;;;;;4893640;29;20217;-36
2022/09/09 02:46:35;;;;;;;2.03;1.70;;;16.60;53.70;;;;;;4893510;29;20225;-35
2022/09/09 02:49:11;;;;;;;2.15;1.80;;;16.60;53.70;;;;;;4894183;29;20228;-36
2022/09/09 02:51:52;;;;;;;1.95;1.73;;;16.70;53.80;;;;;;4893479;29;20679;-36
2022/09/09 02:54:30;;;;;;;3.45;2.00;;;16.70;53.80;;;;;;4894004;29;20661;-36
2022/09/09 02:57:07;;;;;;;2.78;1.77;;;16.70;53.80;;;;;;4892925;29;20300;-42
2022/09/09 02:59:38;;;;;;;2.25;1.73;;;16.70;53.80;;;;;;4893483;29;20207;-35
2022/09/09 03:02:11;;;;;;;2.28;2.00;;;16.70;53.80;;;;;;4893428;29;20685;-35
2022/09/09 03:04:44;;;;;;;1.80;1.55;;;16.70;53.80;;;;;;4893938;29;20205;-36
2022/09/09 03:07:16;;;;;;;2.00;1.63;;;16.80;53.80;;;;;;4893300;29;20398;-36
2022/09/09 03:09:47;;;;;;;2.58;1.88;;;16.80;53.80;;;;;;4893541;29;20284;-36
2022/09/09 03:12:18;;;;;;;3.17;1.73;;;16.80;53.80;;;;;;4893907;29;20201;-35
2022/09/09 03:14:49;;;;;;;2.10;1.70;;;16.80;53.80;;;;;;4894018;29;20204;-37
2022/09/09 03:17:19;;;;;;;2.65;1.60;;;16.80;53.70;;;;;;4893716;29;20233;-35
2022/09/09 03:19:52;;;;;;;1.98;1.50;;;16.80;53.70;;;;;;4893798;29;20219;-35
2022/09/09 03:22:25;;;;;;;2.08;1.85;;;16.90;53.70;;;;;;4893336;29;20291;-35
2022/09/09 03:24:55;;;;;;;1.42;1.33;;;16.90;53.70;;;;;;4894008;29;20252;-36
2022/09/09 03:27:26;;;;;;;1.98;1.70;;;16.90;53.70;;;;;;4892988;29;20228;-35
2022/09/09 03:29:57;;;;;;;2.13;1.85;;;16.90;53.70;;;;;;4893142;29;20232;-36
2022/09/09 03:32:28;;;;;;;2.00;1.50;;;16.90;53.60;;;;;;4895375;29;20293;-35
2022/09/09 03:34:59;;;;;;;2.67;1.63;;;16.90;53.60;;;;;;4897363;29;20200;-36
2022/09/09 03:37:31;;;;;;;1.73;1.58;;;16.90;53.60;;;;;;4896193;29;20231;-36
2022/09/09 03:40:02;;;;;;;2.47;1.60;;;17.00;53.60;;;;;;4934434;23;20319;-39
2022/09/09 03:42:33;;;;;;;2.38;1.30;;;17.00;53.60;;;;;;4934901;29;20393;-43
2022/09/09 03:45:03;;;;;;;3.03;1.50;;;17.00;53.60;;;;;;4915186;29;20200;-42
2022/09/09 03:47:34;;;;;;;1.70;1.60;;;17.00;53.50;;;;;;4915904;29;20234;-42
2022/09/09 03:50:08;;;;;;;1.30;1.20;;;17.00;53.60;;;;;;4926980;29;20231;-48
2022/09/09 03:52:42;;;;;;;2.55;1.60;;;17.00;53.50;;;;;;4916751;29;20498;-40
2022/09/09 03:55:13;;;;;;;1.70;1.60;;;17.10;53.60;;;;;;4897065;29;20473;-48
2022/09/09 03:57:44;;;;;;;1.55;1.40;;;17.10;53.60;;;;;;4896830;29;20197;-44
2022/09/09 04:00:15;;;;;;;2.22;1.50;;;17.10;53.60;;;;;;4897307;29;20264;-41
2022/09/09 04:02:46;;;;;;;1.85;1.23;;;17.20;53.50;;;;;;4899750;29;20633;-45
2022/09/09 04:05:16;;;;;;;1.17;1.08;;;17.20;53.50;;;;;;4897317;29;20785;-43
2022/09/09 04:07:49;;;;;;;1.58;1.20;;;17.20;53.40;;;;;;4909940;29;20230;-41
2022/09/09 04:10:20;;;;;;;1.45;1.30;;;17.30;53.40;;;;;;4915586;29;20275;-39
2022/09/09 04:12:52;;;;;;;2.60;1.30;;;17.30;53.30;;;;;;4916089;29;20200;-37
2022/09/09 04:15:23;;;;;;;2.28;1.30;;;17.30;53.40;;;;;;4915644;29;20791;-42
2022/09/09 04:17:53;;;;;;;1.50;1.40;;;17.30;53.30;;;;;;4915561;29;20204;-45
2022/09/09 04:20:24;;;;;;;2.85;1.75;;;17.30;53.20;;;;;;4915673;29;20243;-34
2022/09/09 04:22:56;;;;;;;1.58;1.45;;;17.40;53.30;;;;;;4914597;29;20200;-41
2022/09/09 04:25:27;;;;;;;1.58;1.48;;;17.40;53.20;;;;;;4914947;29;20207;-44
2022/09/09 04:27:58;;;;;;;1.95;1.58;;;17.40;53.20;;;;;;4914407;29;20196;-38
2022/09/09 04:30:29;;;;;;;2.35;1.63;;;17.40;53.20;;;;;;4913759;29;20333;-44
2022/09/09 04:33:01;;;;;;;2.25;1.60;;;17.50;53.10;;;;;;4914351;29;20196;-40
2022/09/09 04:35:31;;;;;;;2.72;1.50;;;17.50;53.10;;;;;;4914418;29;20224;-38
2022/09/09 04:38:04;;;;;;;1.80;1.20;;;17.50;53.00;;;;;;4900393;29;20201;-40
2022/09/09 05:40:11;;;;;;;1.58;1.48;;;17.60;52.80;;;;;;5200066;23;20253;-35
2022/09/09 05:42:42;;;;;;;1.17;1.10;;;17.60;52.70;;;;;;4895216;29;20629;-36
2022/09/09 05:45:13;;;;;;;1.55;1.30;;;17.60;52.70;;;;;;4895286;29;20209;-37
2022/09/09 05:47:43;;;;;;;1.33;1.13;;;17.60;52.70;;;;;;4895493;29;20213;-37
2022/09/09 05:50:15;;;;;;;1.33;1.23;;;17.60;52.70;;;;;;4895374;29;20221;-38
2022/09/09 05:52:49;;;;;;;1.63;1.38;;;17.60;52.80;;;;;;4895376;29;20201;-36
2022/09/09 05:55:22;;;;;;;1.88;1.20;;;17.60;52.70;;;;;;4894503;29;20203;-40
2022/09/09 05:57:53;;;;;;;2.35;1.40;;;17.60;52.70;;;;;;4894829;29;20205;-36
2022/09/09 06:00:24;;;;;;;1.80;1.45;;;17.50;52.70;;;;;;4894798;29;20215;-36
2022/09/09 06:02:55;;;;;;;1.30;1.20;;;17.60;52.80;;;;;;4894868;29;20205;-36
2022/09/09 06:05:27;;;;;;;1.75;1.13;;;17.60;52.80;;;;;;4895032;29;20237;-36
2022/09/09 06:07:57;;;;;;;1.70;1.38;;;17.50;52.80;;;;;;4893322;29;20300;-36
2022/09/09 06:10:30;;;;;;;1.55;1.45;;;17.50;52.70;;;;;;4875313;29;20229;-36
2022/09/09 06:13:00;;;;;;;1.20;1.10;;;17.50;52.80;;;;;;4875917;29;20212;-36
2022/09/09 06:15:31;;;;;;;1.42;1.20;;;17.50;52.70;;;;;;4876440;29;20240;-37
2022/09/09 06:18:02;;;;;;;1.60;1.50;;;17.50;52.70;;;;;;4876281;29;20627;-36
2022/09/09 06:20:33;;;;;;;2.97;1.48;;;17.40;52.60;;;;;;4876075;29;21119;-36
2022/09/09 06:23:03;;;;;;;1.80;1.20;;;17.50;52.60;;;;;;4875732;29;20579;-36
2022/09/09 06:25:36;;;;;;;1.77;1.52;;;17.40;52.60;;;;;;4875516;29;20883;-35
2022/09/09 06:28:07;;;;;;;1.33;1.23;;;17.40;52.60;;;;;;4875712;29;20208;-36
2022/09/09 06:30:38;;;;;;;1.45;1.35;;;17.40;52.60;;;;;;4876007;29;20225;-35
2022/09/09 06:33:09;;;;;;;1.27;1.17;;;17.30;52.60;;;;;;4875999;29;20662;-36
2022/09/09 06:35:39;;;;;;;1.42;1.33;;;17.30;52.60;;;;;;4875632;29;20313;-35
2022/09/09 06:38:10;;;;;;;1.27;1.17;;;17.30;52.60;;;;;;4875642;29;20205;-36
2022/09/09 07:40:16;;;;;;;1.90;1.63;;;16.90;52.70;;;;;;5199448;23;20236;-44
2022/09/09 07:42:47;;;;;;;1.73;1.63;;;16.90;52.90;;;;;;4912831;29;20283;-42
2022/09/09 07:45:18;;;;;;;1.95;1.75;;;16.80;52.90;;;;;;4912582;29;20236;-38
2022/09/09 07:47:48;;;;;;;1.77;1.65;;;16.80;52.90;;;;;;4912726;29;20200;-39
2022/09/09 07:50:19;;;;;;;2.03;1.65;;;16.80;52.90;;;;;;4912883;29;20644;-40
2022/09/09 07:52:50;;;;;;;1.60;1.40;;;16.80;52.90;;;;;;4912418;29;20208;-42
2022/09/09 07:55:25;;;;;;;1.70;1.60;;;16.70;52.90;;;;;;4911608;29;20208;-43
2022/09/09 07:57:56;;;;;;;2.13;1.67;;;16.70;52.90;;;;;;4912504;29;20247;-41
2022/09/09 08:00:28;;;;;;;1.70;1.60;;;16.70;52.90;;;;;;4912751;29;20196;-40
2022/09/09 08:03:01;;;;;;;1.77;1.60;;;16.70;52.90;;;;;;4912591;29;20200;-50
2022/09/09 08:05:32;;;;;;;1.60;1.35;;;16.70;52.90;;;;;;4906593;29;20212;-41
2022/09/09 08:08:04;;;;;;;1.40;1.30;;;16.60;52.90;;;;;;4875279;29;20241;-51
2022/09/09 08:10:37;;;;;;;1.55;1.45;;;16.60;52.90;;;;;;4892609;29;20225;-41
2022/09/09 08:13:08;;;;;;;1.95;1.67;;;16.60;52.80;;;;;;4893619;29;20208;-37
2022/09/09 08:15:39;;;;;;;1.75;1.50;;;16.60;52.80;;;;;;4893968;29;20231;-41
2022/09/09 08:18:10;;;;;;;1.77;1.67;;;16.60;52.90;;;;;;4894571;29;20205;-44
2022/09/09 08:20:42;;;;;;;2.28;1.48;;;16.50;52.90;;;;;;4897421;29;20921;-37
2022/09/09 08:23:12;;;;;;;2.15;1.83;;;16.50;52.90;;;;;;4897171;29;20205;-36
2022/09/09 08:25:45;;;;;;;1.60;1.50;;;16.50;52.90;;;;;;4908297;29;20220;-36
2022/09/09 08:28:16;;;;;;;1.80;1.70;;;16.50;53.00;;;;;;4915775;29;20581;-40
2022/09/09 08:30:47;;;;;;;1.70;1.60;;;16.40;52.90;;;;;;4915892;29;20231;-54
2022/09/09 08:33:19;;;;;;;2.05;1.85;;;16.40;52.90;;;;;;4915523;29;20272;-39
2022/09/09 08:35:54;;;;;;;1.67;1.58;;;16.40;53.00;;;;;;4915257;29;20808;-46
2022/09/09 09:40:58;;;;;;;1.95;1.75;;;15.90;53.20;;;;;;5015320;23;20270;-35
2022/09/09 09:43:31;;;;;;;1.77;1.63;;;15.80;53.10;;;;;;4914166;29;20221;-35
2022/09/09 09:46:03;;;;;;;1.98;1.73;;;15.80;53.20;;;;;;4908896;29;20221;-35
2022/09/09 09:48:34;;;;;;;1.88;1.73;;;15.80;53.10;;;;;;4895995;29;20203;-38
2022/09/09 09:51:10;;;;;;;1.92;1.77;;;15.80;53.10;;;;;;4896459;29;20318;-51
2022/09/09 09:53:42;;;;;;;1.85;1.70;;;15.80;53.10;;;;;;4896504;29;20252;-53
2022/09/09 09:56:17;;;;;;;1.70;1.60;;;15.80;53.20;;;;;;4895447;29;20223;-45
2022/09/09 09:58:54;;;;;;;1.85;1.60;;;15.70;53.10;;;;;;4896103;29;20201;-44
2022/09/09 10:01:27;;;;;;;3.60;1.90;;;15.70;53.20;;;;;;4895695;29;20653;-35
2022/09/09 10:04:00;;;;;;;2.08;1.88;;;15.70;53.20;;;;;;4895853;29;20197;-43
2022/09/09 10:06:35;;;;;;;2.08;1.92;;;15.70;53.20;;;;;;4895722;29;20227;-42
2022/09/09 10:09:21;;;;;;;2.28;1.98;;;15.60;53.20;;;;;;4895880;29;20200;-38
2022/09/09 10:12:00;;;;;;;2.70;1.60;;;15.60;53.20;;;;;;4895110;29;20728;-34
2022/09/09 10:14:36;;;;;;;3.78;2.20;;;15.60;54.80;;;;;;4895519;29;20206;-46
2022/09/09 10:17:17;;;;;;;3.05;1.98;;;15.70;56.30;;;;;;4895189;29;20311;-49
2022/09/09 10:20:00;;;;;;;2.70;1.92;;;15.80;56.00;;;;;;4895828;29;20196;-51
2022/09/09 10:22:34;;;;;;;2.95;2.10;;;15.80;55.70;;;;;;4894868;29;20543;-48
2022/09/09 10:25:35;;;;;;;2.40;2.20;;;15.90;55.90;;;;;;4895552;29;20201;-35
2022/09/09 10:28:49;;;;;;;5.15;2.20;;;15.90;56.00;;;;;;4895024;29;20208;-34
2022/09/09 10:31:27;;;;;;;2.85;2.17;;;15.90;55.90;;;;;;4881859;29;20229;-43
2022/09/09 10:34:09;;;;;;;5.53;2.35;;;15.90;55.80;;;;;;4895556;29;20193;-36
2022/09/09 10:36:46;;;;;;;4.60;2.42;;;15.90;55.80;;;;;;4895653;29;20225;-36
2022/09/09 10:39:26;;;;;;;3.83;2.90;;;15.80;55.60;;;;;;4909839;23;20323;-37
2022/09/09 10:42:06;;;;;;;2.97;2.70;;;15.80;55.60;;;;;;4913312;29;20201;-37
2022/09/09 10:45:12;;;;;;;4.45;2.30;;;15.80;55.70;;;;;;4905154;29;20683;-36
2022/09/09 10:48:09;;;;;;;3.85;2.33;;;15.80;55.60;;;;;;4877111;29;20288;-36
2022/09/09 10:50:56;;;;;;;3.58;2.45;;;15.70;55.50;;;;;;4874466;29;20237;-36
2022/09/09 10:53:38;;;;;;;5.55;2.95;;;15.70;55.50;;;;;;4876029;29;20261;-36
2022/09/09 10:56:11;;;;;;;4.10;2.70;;;15.70;55.50;;;;;;4875874;29;20224;-35
2022/09/09 10:58:49;;;;;;;3.60;2.58;;;15.70;55.50;;;;;;4876786;29;20297;-43
2022/09/09 11:01:26;;;;;;;3.40;2.60;;;15.60;55.40;;;;;;4876193;29;20675;-47
2022/09/09 11:04:03;;;;;;;3.42;2.72;;;15.60;55.40;;;;;;4875760;29;20288;-38
2022/09/09 11:06:40;;;;;;;2.85;2.33;;;15.60;55.40;;;;;;4875618;29;20221;-57
2022/09/09 11:09:19;;;;;;;3.97;2.53;;;15.50;55.30;;;;;;4876096;29;20280;-36
2022/09/09 11:11:55;;;;;;;3.90;3.08;;;15.50;55.30;;;;;;4876919;29;20212;-46
2022/09/09 11:14:33;;;;;;;3.47;3.00;;;15.50;55.30;;;;;;4876089;29;20549;-37
2022/09/09 11:17:11;;;;;;;3.47;2.65;;;15.50;55.50;;;;;;4874874;29;20229;-43
2022/09/09 11:19:43;;;;;;;4.05;2.65;;;15.50;55.60;;;;;;4875414;29;20237;-48
2022/09/09 11:22:25;;;;;;;3.75;3.10;;;15.40;55.60;;;;;;4874736;29;20288;-42
2022/09/09 11:24:59;;;;;;;3.72;2.80;;;15.40;55.60;;;;;;4874917;29;20201;-37
2022/09/09 11:27:34;;;;;;;3.30;2.90;;;15.40;55.50;;;;;;4875262;29;20228;-51
2022/09/09 11:30:20;;;;;;;3.70;2.50;;;15.40;55.50;;;;;;4875347;29;20662;-47
2022/09/09 11:33:21;;;;;;;4.30;2.97;;;15.40;55.40;;;;;;4875195;29;20202;-48
2022/09/09 11:36:11;;;;;;;3.10;2.55;;;15.30;55.30;;;;;;4856639;29;20225;-36
2022/09/09 11:41:21;;;;;;;4.63;3.00;;;15.30;55.20;;;;;;4891732;29;20228;-34
2022/09/09 11:43:53;;;;;;;2.92;2.50;;;15.20;55.20;;;;;;4894181;29;20205;-35
2022/09/09 11:46:25;;;;;;;3.92;2.88;;;15.20;55.20;;;;;;4893651;29;20232;-35
2022/09/09 11:49:05;;;;;;;4.28;2.35;;;15.20;55.10;;;;;;4875709;29;20204;-34
2022/09/09 11:51:37;;;;;;;2.72;2.30;;;15.10;55.10;;;;;;4875000;29;20240;-34
2022/09/09 11:54:32;;;;;;;4.55;2.97;;;15.10;55.10;;;;;;4877495;29;20201;-35
2022/09/09 11:57:04;;;;;;;3.47;2.80;;;15.10;55.10;;;;;;4897487;29;20224;-34
2022/09/09 11:59:36;;;;;;;3.70;2.63;;;15.10;55.00;;;;;;4897681;29;20286;-35
2022/09/09 12:02:19;;;;;;;3.85;2.50;;;15.10;55.00;;;;;;4897271;29;20654;-34
2022/09/09 12:04:58;;;;;;;3.38;2.40;;;15.00;54.90;;;;;;4897720;29;20197;-35
2022/09/09 12:07:38;;;;;;;3.35;2.80;;;15.00;54.90;;;;;;4897341;29;20292;-34
2022/09/09 12:10:26;;;;;;;2.78;2.50;;;15.00;54.90;;;;;;4880120;29;20231;-41
2022/09/09 12:12:57;;;;;;;3.10;2.15;;;15.00;54.90;;;;;;4878147;29;20285;-34
2022/09/09 12:15:30;;;;;;;3.28;2.80;;;15.00;54.80;;;;;;4877675;29;20280;-37
2022/09/09 12:18:02;;;;;;;3.15;2.72;;;14.90;54.80;;;;;;4877800;29;20197;-34
2022/09/09 12:20:38;;;;;;;4.35;2.67;;;14.90;54.80;;;;;;4877903;29;20674;-39
2022/09/09 12:23:28;;;;;;;3.20;2.65;;;14.90;55.40;;;;;;4878157;29;20205;-37
2022/09/09 12:26:15;;;;;;;3.65;2.58;;;14.80;54.70;;;;;;4877801;29;20221;-35
2022/09/09 12:28:57;;;;;;;3.70;2.60;;;14.80;54.70;;;;;;4877661;29;20205;-39
2022/09/09 12:31:35;;;;;;;3.72;2.75;;;14.80;54.70;;;;;;4877880;29;20229;-34
2022/09/09 12:34:17;;;;;;;3.38;2.53;;;14.80;54.70;;;;;;4877833;29;20206;-35
2022/09/09 12:36:57;;;;;;;3.38;2.80;;;14.80;54.60;;;;;;4878004;29;20230;-36
2022/09/09 12:39:34;;;;;;;3.28;2.47;;;14.70;54.50;;;;;;4902576;23;20313;-35
2022/09/09 12:42:05;;;;;;;2.88;2.38;;;14.70;54.50;;;;;;4914951;29;20243;-44
2022/09/09 12:44:36;;;;;;;3.03;2.55;;;14.70;54.50;;;;;;4914773;29;20196;-44
2022/09/09 12:47:07;;;;;;;3.22;2.60;;;14.70;54.50;;;;;;4914355;29;20224;-46
2022/09/09 12:49:40;;;;;;;2.50;2.30;;;14.70;54.50;;;;;;4915158;29;20203;-42
2022/09/09 12:52:19;;;;;;;3.05;2.75;;;14.70;54.50;;;;;;4915325;29;20272;-41
2022/09/09 12:54:53;;;;;;;3.13;2.70;;;14.70;54.50;;;;;;4915104;29;20207;-43
2022/09/09 12:57:26;;;;;;;3.05;2.35;;;14.60;54.40;;;;;;4915078;29;20216;-54
2022/09/09 13:00:10;;;;;;;2.97;2.22;;;14.60;54.40;;;;;;4914991;29;20764;-48
2022/09/09 13:02:50;;;;;;;3.53;2.60;;;14.60;54.50;;;;;;4915314;29;20247;-37
2022/09/09 13:05:23;;;;;;;3.53;2.38;;;14.50;54.40;;;;;;4913542;29;20211;-41
2022/09/09 13:08:04;;;;;;;2.50;2.30;;;14.60;54.40;;;;;;4915111;29;20215;-45
2022/09/09 13:10:39;;;;;;;3.53;2.72;;;14.50;54.40;;;;;;4920210;29;20223;-45
2022/09/09 13:13:18;;;;;;;3.53;2.50;;;14.50;54.30;;;;;;4934125;28;20629;-52
2022/09/09 13:15:54;;;;;;;3.30;2.80;;;14.50;54.30;;;;;;4934092;29;20722;-39
2022/09/09 13:18:27;;;;;;;3.78;2.95;;;14.50;54.30;;;;;;4933846;29;20199;-45
2022/09/09 13:20:59;;;;;;;4.10;2.45;;;14.50;54.30;;;;;;4933350;29;20206;-52
2022/09/09 13:23:34;;;;;;;3.17;2.20;;;14.50;54.30;;;;;;4933203;29;20238;-45
2022/09/09 13:26:07;;;;;;;3.97;2.63;;;14.40;54.20;;;;;;4923534;29;20220;-50
2022/09/09 13:28:38;;;;;;;3.03;2.70;;;14.40;54.20;;;;;;4914703;29;20283;-36
2022/09/09 13:31:22;;;;;;;3.30;2.70;;;14.40;54.20;;;;;;4914236;29;20251;-42
2022/09/09 13:33:53;;;;;;;2.75;2.35;;;14.40;54.20;;;;;;4914965;29;20656;-46
2022/09/09 13:36:32;;;;;;;4.32;2.95;;;14.40;54.20;;;;;;4914470;29;20217;-38
2022/09/09 14:41:16;;;;;;;2.65;1.95;;;14.00;53.70;;;;;;4972468;23;20290;-34
2022/09/09 14:43:47;;;;;;;3.28;2.13;;;14.00;53.70;;;;;;4913070;29;20231;-34
2022/09/09 14:46:20;;;;;;;2.63;2.10;;;13.90;53.70;;;;;;4904700;29;20228;-36
2022/09/09 14:48:54;;;;;;;2.33;2.13;;;14.00;53.80;;;;;;4894730;29;20196;-35
2022/09/09 14:51:27;;;;;;;2.88;2.10;;;13.90;53.80;;;;;;4894439;29;20587;-35
2022/09/09 14:53:58;;;;;;;2.08;1.88;;;13.90;53.70;;;;;;4893842;29;20197;-34
2022/09/09 14:56:34;;;;;;;3.00;2.15;;;13.90;53.80;;;;;;4893170;29;20331;-34
2022/09/09 14:59:05;;;;;;;2.22;1.90;;;13.90;53.70;;;;;;4894253;29;20708;-35
2022/09/09 15:01:36;;;;;;;2.22;2.03;;;13.90;53.70;;;;;;4894226;29;20197;-34
2022/09/09 15:04:07;;;;;;;2.25;1.90;;;13.90;53.70;;;;;;4893853;29;20197;-35
2022/09/09 15:06:39;;;;;;;2.25;1.95;;;13.90;53.70;;;;;;4894252;29;20689;-35
2022/09/09 15:09:09;;;;;;;2.58;1.67;;;13.90;53.70;;;;;;4894002;29;20273;-35
2022/09/09 15:11:43;;;;;;;2.13;1.65;;;13.90;53.70;;;;;;4875345;29;20237;-34
2022/09/09 15:14:14;;;;;;;3.22;1.90;;;13.80;53.60;;;;;;4875225;29;20212;-34
2022/09/09 15:16:44;;;;;;;2.40;2.08;;;13.80;53.60;;;;;;4875625;29;20217;-43
2022/09/09 15:19:18;;;;;;;2.22;1.88;;;13.80;53.60;;;;;;4875821;29;20205;-35
2022/09/09 15:21:49;;;;;;;1.85;1.73;;;13.80;53.70;;;;;;4875538;29;20622;-34
2022/09/09 15:24:20;;;;;;;2.85;1.83;;;13.80;53.70;;;;;;4875020;29;20224;-35
2022/09/09 15:26:53;;;;;;;1.73;1.63;;;13.80;53.70;;;;;;4893452;29;20630;-35
2022/09/09 15:29:24;;;;;;;2.15;1.85;;;13.70;53.70;;;;;;4896101;29;20265;-37
2022/09/09 15:31:56;;;;;;;1.90;1.60;;;13.70;53.70;;;;;;4894023;29;20943;-33
2022/09/09 15:34:27;;;;;;;2.10;1.90;;;13.70;53.70;;;;;;4894258;29;20205;-34
2022/09/09 15:36:59;;;;;;;2.88;2.20;;;13.70;53.70;;;;;;4891434;29;20221;-35
2022/09/09 15:39:30;;;;;;;2.00;1.40;;;13.70;53.70;;;;;;4905922;23;20256;-35
2022/09/09 15:42:03;;;;;;;1.95;1.70;;;13.70;53.70;;;;;;4898653;29;20196;-44
2022/09/09 15:44:42;;;;;;;2.45;1.95;;;13.70;53.70;;;;;;4912338;29;20287;-44
2022/09/09 15:47:15;;;;;;;1.77;1.67;;;13.70;53.60;;;;;;4911836;29;20869;-41
2022/09/09 15:49:45;;;;;;;1.92;1.70;;;13.70;53.60;;;;;;4893127;29;20204;-39
2022/09/09 15:52:17;;;;;;;2.05;1.85;;;13.70;53.60;;;;;;4893120;29;20236;-43
2022/09/09 15:54:48;;;;;;;2.40;2.00;;;13.70;53.50;;;;;;4900860;29;20889;-39
2022/09/09 15:57:20;;;;;;;2.33;1.90;;;13.70;53.60;;;;;;4893956;29;20231;-39
2022/09/09 15:59:51;;;;;;;1.60;1.50;;;13.60;53.60;;;;;;4893740;29;20216;-50
2022/09/09 16:02:22;;;;;;;1.85;1.50;;;13.60;53.60;;;;;;4893173;29;20207;-42
2022/09/09 16:04:53;;;;;;;1.90;1.80;;;13.60;53.60;;;;;;4893307;29;20205;-41
2022/09/09 16:07:23;;;;;;;1.88;1.60;;;13.60;53.60;;;;;;4891943;29;20225;-36
2022/09/09 16:09:54;;;;;;;1.55;1.40;;;13.60;53.60;;;;;;4885644;29;20197;-47
2022/09/09 16:12:27;;;;;;;2.00;1.73;;;13.60;53.60;;;;;;4892875;29;20650;-50
2022/09/09 16:14:57;;;;;;;1.95;1.70;;;13.60;53.60;;;;;;4907396;29;20692;-40
2022/09/09 16:17:28;;;;;;;2.10;1.75;;;13.60;53.60;;;;;;4912301;29;20371;-47
2022/09/09 16:19:59;;;;;;;2.03;1.52;;;13.60;53.60;;;;;;4912197;29;20200;-40
2022/09/09 16:22:29;;;;;;;1.63;1.52;;;13.60;53.60;;;;;;4896790;29;20198;-53
2022/09/09 16:25:00;;;;;;;2.40;1.90;;;13.60;53.60;;;;;;4892785;29;20205;-49
2022/09/09 16:27:33;;;;;;;1.73;1.63;;;13.60;53.60;;;;;;4910648;29;20223;-51
2022/09/09 16:30:04;;;;;;;1.60;1.50;;;13.50;53.50;;;;;;4912680;29;20211;-49
2022/09/09 16:32:35;;;;;;;1.98;1.58;;;13.50;53.50;;;;;;4912320;29;20224;-40
2022/09/09 16:35:07;;;;;;;1.98;1.77;;;13.50;53.60;;;;;;4911627;29;20416;-50
2022/09/09 16:37:38;;;;;;;1.73;1.38;;;13.50;53.60;;;;;;4911320;29;20228;-47
2022/09/09 16:40:09;;;;;;;1.95;1.60;;;13.50;53.50;;;;;;4896774;29;20658;-51
2022/09/09 16:42:42;;;;;;;2.25;1.80;;;13.50;53.60;;;;;;4896443;29;20344;-40
2022/09/09 16:45:13;;;;;;;1.83;1.70;;;13.50;53.60;;;;;;4896417;29;20567;-41
2022/09/09 16:47:44;;;;;;;2.05;1.75;;;13.50;53.50;;;;;;4896388;29;20631;-36
2022/09/09 16:50:15;;;;;;;1.63;1.52;;;13.50;53.60;;;;;;4896217;29;20197;-39
2022/09/09 16:52:46;;;;;;;2.53;1.90;;;13.50;53.60;;;;;;4895875;29;20231;-44
2022/09/09 16:55:17;;;;;;;1.73;1.50;;;13.50;53.60;;;;;;4895596;29;21787;-47
2022/09/09 16:57:49;;;;;;;1.70;1.60;;;13.40;53.50;;;;;;4896739;29;20689;-41
2022/09/09 17:00:21;;;;;;;2.00;1.67;;;13.50;53.50;;;;;;4895996;29;20618;-43
2022/09/09 17:02:52;;;;;;;1.75;1.65;;;13.40;53.50;;;;;;4903644;29;20247;-39
2022/09/09 17:05:23;;;;;;;1.67;1.50;;;13.40;53.50;;;;;;4914412;29;20660;-46
2022/09/09 17:07:54;;;;;;;2.78;1.73;;;13.40;53.50;;;;;;4914691;29;20684;-36
2022/09/09 17:10:25;;;;;;;2.08;1.58;;;13.40;53.50;;;;;;4879765;29;20201;-48
2022/09/09 17:12:57;;;;;;;1.35;1.25;;;13.40;53.50;;;;;;4895507;29;20601;-43
2022/09/09 17:15:28;;;;;;;2.00;1.73;;;13.40;53.50;;;;;;4895681;29;20201;-51
2022/09/09 17:17:59;;;;;;;1.88;1.48;;;13.40;53.50;;;;;;4895550;29;20661;-39
2022/09/09 17:20:29;;;;;;;1.83;1.58;;;13.40;53.50;;;;;;4896002;29;20204;-43
2022/09/09 17:23:00;;;;;;;1.70;1.60;;;13.40;53.60;;;;;;4895732;29;20212;-52
2022/09/09 17:25:31;;;;;;;1.67;1.58;;;13.30;53.50;;;;;;4894586;29;20209;-50
2022/09/09 17:28:04;;;;;;;1.77;1.65;;;13.30;53.50;;;;;;4897776;29;20193;-45
2022/09/09 17:30:37;;;;;;;1.83;1.73;;;13.30;53.50;;;;;;4895673;29;20601;-49
2022/09/09 17:33:08;;;;;;;2.10;1.70;;;13.30;53.50;;;;;;4895782;29;20239;-41
2022/09/09 17:35:39;;;;;;;2.00;1.75;;;13.30;53.50;;;;;;4895499;29;20255;-46
2022/09/09 17:38:11;;;;;;;2.08;1.70;;;13.30;53.50;;;;;;4895155;29;20649;-40
2022/09/09 17:40:42;;;;;;;2.30;1.70;;;13.30;53.50;;;;;;4928776;23;20231;-35
2022/09/09 17:43:15;;;;;;;2.10;1.70;;;13.30;53.50;;;;;;4931447;29;20829;-37
2022/09/09 17:45:46;;;;;;;1.63;1.50;;;13.30;53.50;;;;;;4913412;29;20248;-38
2022/09/09 17:48:17;;;;;;;1.85;1.45;;;13.30;53.50;;;;;;4913939;29;20204;-34
2022/09/09 17:50:48;;;;;;;1.55;1.45;;;13.30;53.50;;;;;;4913608;29;20223;-37
2022/09/09 17:53:18;;;;;;;2.78;1.80;;;13.30;53.50;;;;;;4914237;29;20223;-34
2022/09/09 17:55:49;;;;;;;1.77;1.67;;;13.20;53.50;;;;;;4909681;29;20221;-34
2022/09/09 17:58:22;;;;;;;2.03;1.90;;;13.20;53.50;;;;;;4895256;29;20200;-34
2022/09/09 18:00:52;;;;;;;2.38;1.65;;;13.20;53.50;;;;;;4895017;29;20677;-34
2022/09/09 18:03:23;;;;;;;2.15;1.85;;;13.20;53.50;;;;;;4919599;29;20839;-34
2022/09/09 18:05:53;;;;;;;2.45;1.58;;;13.20;53.50;;;;;;4932981;29;20231;-38
2022/09/09 18:08:24;;;;;;;2.22;1.70;;;13.20;53.50;;;;;;4929188;29;20212;-35
2022/09/09 18:10:56;;;;;;;2.13;1.50;;;13.20;53.50;;;;;;4909349;29;20205;-40
2022/09/09 18:13:29;;;;;;;1.73;1.63;;;13.20;53.50;;;;;;4894695;29;20255;-36
2022/09/09 18:15:59;;;;;;;2.33;1.73;;;13.20;53.50;;;;;;4896842;29;20213;-34
2022/09/09 18:18:30;;;;;;;2.22;1.70;;;13.20;53.50;;;;;;4894278;29;20201;-34
2022/09/09 18:21:05;;;;;;;1.70;1.35;;;13.20;53.50;;;;;;4894576;29;20299;-35
2022/09/09 18:23:38;;;;;;;2.28;1.50;;;13.10;53.40;;;;;;4895063;29;20209;-40
2022/09/09 18:26:13;;;;;;;1.80;1.50;;;13.20;53.50;;;;;;4898910;29;20223;-34
2022/09/09 18:28:49;;;;;;;1.52;1.42;;;13.10;53.40;;;;;;4913291;29;20200;-35
2022/09/09 18:31:22;;;;;;;1.50;1.40;;;13.10;53.40;;;;;;4913707;29;20619;-35